Terminal Aerodrome Forecast
Issued by NWS

Home | Current Version | Previous Version | Text Only | Print | Product List | Glossary On
Versions: 1 2 3 4 5 6 7 8 9 10 11 12 13 14 15 16 17 18 19 20 21 22 23 24 25 26 27 28 29 30 31 32 33 34 35 36 37 38 39 40 41 42
000
FTUS44 KLIX 262337
TAFHDC
TAF
KHDC 262337Z 2700/2724 16008KT P6SM SCT035 SCT090
     FM270500 16005KT 5SM BR BKN012
      TEMPO 2710/2714 3SM BR BKN008
     FM271500 17009KT P6SM BKN045=

USA.gov is the U.S. government's official web portal to all federal, state and local government web resources and services.